sensor_id;sensor_type;location;lat;lon;timestamp;temperature;humidity
48488;DHT22;34289;48.572;13.378;2023-02-02T00:01:30;4.60;99.90
48488;DHT22;34289;48.572;13.378;2023-02-02T00:03:56;4.60;99.90
48488;DHT22;34289;48.572;13.378;2023-02-02T00:06:24;4.70;99.90
48488;DHT22;34289;48.572;13.378;2023-02-02T00:08:51;4.60;99.90
48488;DHT22;34289;48.572;13.378;2023-02-02T00:11:17;4.60;99.90
48488;DHT22;34289;48.572;13.378;2023-02-02T00:13:43;5.00;99.90
48488;DHT22;34289;48.572;13.378;2023-02-02T00:18:59;5.30;99.90
48488;DHT22;34289;48.572;13.378;2023-02-02T00:21:25;4.70;99.90
48488;DHT22;34289;48.572;13.378;2023-02-02T00:23:51;4.70;99.90
48488;DHT22;34289;48.572;13.378;2023-02-02T00:26:17;4.70;99.90
48488;DHT22;34289;48.572;13.378;2023-02-02T00:28:43;5.10;99.90
48488;DHT22;34289;48.572;13.378;2023-02-02T00:31:10;4.90;99.90
48488;DHT22;34289;48.572;13.378;2023-02-02T00:33:36;4.80;99.90
48488;DHT22;34289;48.572;13.378;2023-02-02T00:36:03;4.80;99.90
48488;DHT22;34289;48.572;13.378;2023-02-02T00:38:30;4.80;99.90
48488;DHT22;34289;48.572;13.378;2023-02-02T00:40:55;4.90;99.90
48488;DHT22;34289;48.572;13.378;2023-02-02T00:43:21;4.90;99.90
48488;DHT22;34289;48.572;13.378;2023-02-02T00:45:47;4.90;99.90
48488;DHT22;34289;48.572;13.378;2023-02-02T00:48:13;4.80;99.90
48488;DHT22;34289;48.572;13.378;2023-02-02T00:50:42;4.80;99.90
48488;DHT22;34289;48.572;13.378;2023-02-02T00:53:07;5.10;99.90
48488;DHT22;34289;48.572;13.378;2023-02-02T00:55:33;4.80;99.90
48488;DHT22;34289;48.572;13.378;2023-02-02T00:57:59;4.80;99.90
48488;DHT22;34289;48.572;13.378;2023-02-02T01:00:25;4.90;99.90
48488;DHT22;34289;48.572;13.378;2023-02-02T01:02:52;4.90;99.90
48488;DHT22;34289;48.572;13.378;2023-02-02T01:05:19;4.90;99.90
48488;DHT22;34289;48.572;13.378;2023-02-02T01:07:45;4.90;99.90
48488;DHT22;34289;48.572;13.378;2023-02-02T01:10:13;5.20;99.90
48488;DHT22;34289;48.572;13.378;2023-02-02T01:12:40;5.00;99.90
48488;DHT22;34289;48.572;13.378;2023-02-02T01:15:06;4.90;99.90
48488;DHT22;34289;48.572;13.378;2023-02-02T01:17:32;5.00;99.90
48488;DHT22;34289;48.572;13.378;2023-02-02T01:19:57;4.90;99.90
48488;DHT22;34289;48.572;13.378;2023-02-02T01:22:23;5.00;99.90
48488;DHT22;34289;48.572;13.378;2023-02-02T01:24:49;5.00;99.90
48488;DHT22;34289;48.572;13.378;2023-02-02T01:27:14;4.90;99.90
48488;DHT22;34289;48.572;13.378;2023-02-02T01:29:40;5.00;99.90
48488;DHT22;34289;48.572;13.378;2023-02-02T01:32:06;5.00;99.90
48488;DHT22;34289;48.572;13.378;2023-02-02T01:34:31;5.00;99.90
48488;DHT22;34289;48.572;13.378;2023-02-02T01:36:57;5.00;99.90
48488;DHT22;34289;48.572;13.378;2023-02-02T01:39:23;5.00;99.90
48488;DHT22;34289;48.572;13.378;2023-02-02T01:41:48;4.90;99.90
48488;DHT22;34289;48.572;13.378;2023-02-02T01:47:19;4.90;99.90
48488;DHT22;34289;48.572;13.378;2023-02-02T01:49:46;4.90;99.90
48488;DHT22;34289;48.572;13.378;2023-02-02T01:52:13;4.70;99.90
48488;DHT22;34289;48.572;13.378;2023-02-02T01:54:44;4.80;99.90
48488;DHT22;34289;48.572;13.378;2023-02-02T01:57:17;4.80;99.90
48488;DHT22;34289;48.572;13.378;2023-02-02T01:59:46;4.70;99.90
48488;DHT22;34289;48.572;13.378;2023-02-02T02:02:12;4.60;99.90
48488;DHT22;34289;48.572;13.378;2023-02-02T02:04:38;4.10;99.90
48488;DHT22;34289;48.572;13.378;2023-02-02T02:07:04;3.80;99.90
48488;DHT22;34289;48.572;13.378;2023-02-02T02:09:30;3.50;99.90
48488;DHT22;34289;48.572;13.378;2023-02-02T02:11:56;3.20;99.90
48488;DHT22;34289;48.572;13.378;2023-02-02T02:14:22;3.10;99.90
48488;DHT22;34289;48.572;13.378;2023-02-02T02:34:21;2.50;99.90
48488;DHT22;34289;48.572;13.378;2023-02-02T02:39:49;2.30;99.90
48488;DHT22;34289;48.572;13.378;2023-02-02T02:42:21;2.30;99.90
48488;DHT22;34289;48.572;13.378;2023-02-02T02:44:48;2.20;99.90
48488;DHT22;34289;48.572;13.378;2023-02-02T02:47:16;2.10;99.90
48488;DHT22;34289;48.572;13.378;2023-02-02T02:49:44;2.00;99.90
48488;DHT22;34289;48.572;13.378;2023-02-02T02:52:10;2.00;99.90
48488;DHT22;34289;48.572;13.378;2023-02-02T02:54:56;1.90;99.90
48488;DHT22;34289;48.572;13.378;2023-02-02T03:06:11;1.90;99.90
48488;DHT22;34289;48.572;13.378;2023-02-02T03:08:50;1.80;99.90
48488;DHT22;34289;48.572;13.378;2023-02-02T03:11:18;1.80;99.90
48488;DHT22;34289;48.572;13.378;2023-02-02T03:13:45;1.80;99.90
48488;DHT22;34289;48.572;13.378;2023-02-02T03:16:11;1.80;99.90
48488;DHT22;34289;48.572;13.378;2023-02-02T03:18:39;1.80;99.90
48488;DHT22;34289;48.572;13.378;2023-02-02T03:21:05;1.80;99.90
48488;DHT22;34289;48.572;13.378;2023-02-02T03:23:30;1.80;99.90
48488;DHT22;34289;48.572;13.378;2023-02-02T03:25:56;1.70;99.90
48488;DHT22;34289;48.572;13.378;2023-02-02T03:28:23;1.70;99.90
48488;DHT22;34289;48.572;13.378;2023-02-02T03:30:50;1.60;99.90
48488;DHT22;34289;48.572;13.378;2023-02-02T03:33:16;1.70;99.90
48488;DHT22;34289;48.572;13.378;2023-02-02T03:35:43;1.80;99.90
48488;DHT22;34289;48.572;13.378;2023-02-02T03:38:09;1.80;99.90
48488;DHT22;34289;48.572;13.378;2023-02-02T03:40:35;1.80;99.90
48488;DHT22;34289;48.572;13.378;2023-02-02T03:43:00;1.70;99.90
48488;DHT22;34289;48.572;13.378;2023-02-02T03:45:27;1.70;99.90
48488;DHT22;34289;48.572;13.378;2023-02-02T03:47:53;1.70;99.90
48488;DHT22;34289;48.572;13.378;2023-02-02T03:50:19;3.50;99.90
48488;DHT22;34289;48.572;13.378;2023-02-02T03:52:44;1.60;99.90
48488;DHT22;34289;48.572;13.378;2023-02-02T03:55:10;1.70;99.90
48488;DHT22;34289;48.572;13.378;2023-02-02T03:57:36;1.80;99.90
48488;DHT22;34289;48.572;13.378;2023-02-02T04:00:03;1.70;99.90
48488;DHT22;34289;48.572;13.378;2023-02-02T04:02:29;1.70;99.90
48488;DHT22;34289;48.572;13.378;2023-02-02T04:04:54;1.70;99.90
48488;DHT22;34289;48.572;13.378;2023-02-02T04:07:20;1.70;99.90
48488;DHT22;34289;48.572;13.378;2023-02-02T04:09:46;1.70;99.90
48488;DHT22;34289;48.572;13.378;2023-02-02T04:12:11;1.60;99.90
48488;DHT22;34289;48.572;13.378;2023-02-02T04:14:37;1.70;99.90
48488;DHT22;34289;48.572;13.378;2023-02-02T04:17:03;1.70;99.90
48488;DHT22;34289;48.572;13.378;2023-02-02T04:19:28;1.70;99.90
48488;DHT22;34289;48.572;13.378;2023-02-02T04:21:54;1.70;99.90
48488;DHT22;34289;48.572;13.378;2023-02-02T04:24:19;1.70;99.90
48488;DHT22;34289;48.572;13.378;2023-02-02T04:26:45;1.70;99.90
48488;DHT22;34289;48.572;13.378;2023-02-02T04:29:10;1.60;99.90
48488;DHT22;34289;48.572;13.378;2023-02-02T04:31:36;1.70;99.90
48488;DHT22;34289;48.572;13.378;2023-02-02T04:34:02;1.70;99.90
48488;DHT22;34289;48.572;13.378;2023-02-02T04:36:27;1.40;99.90
48488;DHT22;34289;48.572;13.378;2023-02-02T04:38:54;1.60;99.90
48488;DHT22;34289;48.572;13.378;2023-02-02T04:41:20;1.60;99.90
48488;DHT22;34289;48.572;13.378;2023-02-02T04:43:46;1.70;99.90
48488;DHT22;34289;48.572;13.378;2023-02-02T04:46:13;1.70;99.90
48488;DHT22;34289;48.572;13.378;2023-02-02T04:48:39;1.60;99.90
48488;DHT22;34289;48.572;13.378;2023-02-02T04:51:11;1.60;99.90
48488;DHT22;34289;48.572;13.378;2023-02-02T04:53:38;1.60;99.90
48488;DHT22;34289;48.572;13.378;2023-02-02T04:56:10;1.60;99.90
48488;DHT22;34289;48.572;13.378;2023-02-02T04:58:36;1.60;99.90
48488;DHT22;34289;48.572;13.378;2023-02-02T05:01:11;1.70;99.90
48488;DHT22;34289;48.572;13.378;2023-02-02T05:03:37;1.60;99.90
48488;DHT22;34289;48.572;13.378;2023-02-02T05:06:03;1.70;99.90
48488;DHT22;34289;48.572;13.378;2023-02-02T05:08:30;1.60;99.90
48488;DHT22;34289;48.572;13.378;2023-02-02T05:10:55;1.60;99.90
48488;DHT22;34289;48.572;13.378;2023-02-02T05:13:21;1.50;99.90
48488;DHT22;34289;48.572;13.378;2023-02-02T05:15:47;1.50;99.90
48488;DHT22;34289;48.572;13.378;2023-02-02T05:18:13;1.60;99.90
48488;DHT22;34289;48.572;13.378;2023-02-02T05:20:38;1.60;99.90
48488;DHT22;34289;48.572;13.378;2023-02-02T05:23:04;1.60;99.90
48488;DHT22;34289;48.572;13.378;2023-02-02T05:25:29;1.60;99.90
48488;DHT22;34289;48.572;13.378;2023-02-02T05:27:55;1.60;99.90
48488;DHT22;34289;48.572;13.378;2023-02-02T05:30:21;1.70;99.90
48488;DHT22;34289;48.572;13.378;2023-02-02T05:32:46;1.60;99.90
48488;DHT22;34289;48.572;13.378;2023-02-02T05:35:12;1.70;99.90
48488;DHT22;34289;48.572;13.378;2023-02-02T05:37:37;1.70;99.90
48488;DHT22;34289;48.572;13.378;2023-02-02T05:40:03;1.70;99.90
48488;DHT22;34289;48.572;13.378;2023-02-02T05:42:29;1.70;99.90
48488;DHT22;34289;48.572;13.378;2023-02-02T05:44:55;1.60;99.90
48488;DHT22;34289;48.572;13.378;2023-02-02T05:47:20;1.60;99.90
48488;DHT22;34289;48.572;13.378;2023-02-02T05:49:46;1.50;99.90
48488;DHT22;34289;48.572;13.378;2023-02-02T05:52:17;1.50;99.90
48488;DHT22;34289;48.572;13.378;2023-02-02T05:54:43;1.60;99.90
48488;DHT22;34289;48.572;13.378;2023-02-02T05:57:09;1.70;99.90
48488;DHT22;34289;48.572;13.378;2023-02-02T05:59:35;1.70;99.90
48488;DHT22;34289;48.572;13.378;2023-02-02T06:02:00;1.60;99.90
48488;DHT22;34289;48.572;13.378;2023-02-02T06:04:26;1.60;99.90
48488;DHT22;34289;48.572;13.378;2023-02-02T06:06:51;1.60;99.90
48488;DHT22;34289;48.572;13.378;2023-02-02T06:09:17;1.60;99.90
48488;DHT22;34289;48.572;13.378;2023-02-02T06:11:43;1.60;99.90
48488;DHT22;34289;48.572;13.378;2023-02-02T06:14:09;1.60;99.90
48488;DHT22;34289;48.572;13.378;2023-02-02T06:16:34;1.90;99.90
48488;DHT22;34289;48.572;13.378;2023-02-02T06:19:00;1.60;99.90
48488;DHT22;34289;48.572;13.378;2023-02-02T06:21:26;1.60;99.90
48488;DHT22;34289;48.572;13.378;2023-02-02T06:23:55;1.60;99.90
48488;DHT22;34289;48.572;13.378;2023-02-02T06:26:21;1.60;99.90
48488;DHT22;34289;48.572;13.378;2023-02-02T06:28:49;1.60;99.90
48488;DHT22;34289;48.572;13.378;2023-02-02T06:31:15;1.70;99.90
48488;DHT22;34289;48.572;13.378;2023-02-02T06:34:01;1.70;99.90
48488;DHT22;34289;48.572;13.378;2023-02-02T06:36:27;1.60;99.90
48488;DHT22;34289;48.572;13.378;2023-02-02T06:38:54;1.60;99.90
48488;DHT22;34289;48.572;13.378;2023-02-02T06:41:20;1.60;99.90
48488;DHT22;34289;48.572;13.378;2023-02-02T06:43:47;1.60;99.90
48488;DHT22;34289;48.572;13.378;2023-02-02T06:46:13;2.00;99.90
48488;DHT22;34289;48.572;13.378;2023-02-02T06:48:39;1.50;99.90
48488;DHT22;34289;48.572;13.378;2023-02-02T06:51:05;1.60;99.90
48488;DHT22;34289;48.572;13.378;2023-02-02T06:53:31;1.60;99.90
48488;DHT22;34289;48.572;13.378;2023-02-02T06:56:02;1.60;99.90
48488;DHT22;34289;48.572;13.378;2023-02-02T06:58:29;1.60;99.90
48488;DHT22;34289;48.572;13.378;2023-02-02T07:01:08;1.70;99.90
48488;DHT22;34289;48.572;13.378;2023-02-02T07:03:35;1.60;99.90
48488;DHT22;34289;48.572;13.378;2023-02-02T07:06:33;1.50;99.90
48488;DHT22;34289;48.572;13.378;2023-02-02T07:08:59;1.60;99.90
48488;DHT22;34289;48.572;13.378;2023-02-02T07:11:25;1.50;99.90
48488;DHT22;34289;48.572;13.378;2023-02-02T07:13:51;1.50;99.90
48488;DHT22;34289;48.572;13.378;2023-02-02T07:16:17;1.50;99.90
48488;DHT22;34289;48.572;13.378;2023-02-02T07:18:43;1.50;99.90
48488;DHT22;34289;48.572;13.378;2023-02-02T07:21:16;1.50;99.90
48488;DHT22;34289;48.572;13.378;2023-02-02T07:23:42;1.40;99.90
48488;DHT22;34289;48.572;13.378;2023-02-02T07:26:09;1.40;99.90
48488;DHT22;34289;48.572;13.378;2023-02-02T07:28:35;1.50;99.90
48488;DHT22;34289;48.572;13.378;2023-02-02T07:31:15;1.60;99.90
48488;DHT22;34289;48.572;13.378;2023-02-02T07:33:42;1.60;99.90
48488;DHT22;34289;48.572;13.378;2023-02-02T07:36:09;1.50;99.90
48488;DHT22;34289;48.572;13.378;2023-02-02T07:38:35;1.50;99.90
48488;DHT22;34289;48.572;13.378;2023-02-02T07:41:01;1.60;99.90
48488;DHT22;34289;48.572;13.378;2023-02-02T07:43:27;1.60;99.90
48488;DHT22;34289;48.572;13.378;2023-02-02T07:45:53;1.60;99.90
48488;DHT22;34289;48.572;13.378;2023-02-02T07:48:18;1.60;99.90
48488;DHT22;34289;48.572;13.378;2023-02-02T07:50:44;1.50;99.90
48488;DHT22;34289;48.572;13.378;2023-02-02T07:53:09;1.50;99.90
48488;DHT22;34289;48.572;13.378;2023-02-02T07:55:35;1.50;99.90
48488;DHT22;34289;48.572;13.378;2023-02-02T07:58:01;1.50;99.90
48488;DHT22;34289;48.572;13.378;2023-02-02T08:00:27;1.60;99.90
48488;DHT22;34289;48.572;13.378;2023-02-02T08:02:53;2.00;99.90
48488;DHT22;34289;48.572;13.378;2023-02-02T08:05:19;1.50;99.90
48488;DHT22;34289;48.572;13.378;2023-02-02T08:07:46;1.50;99.90
48488;DHT22;34289;48.572;13.378;2023-02-02T08:10:12;1.50;99.90
48488;DHT22;34289;48.572;13.378;2023-02-02T08:12:38;1.50;99.90
48488;DHT22;34289;48.572;13.378;2023-02-02T08:15:04;1.50;99.90
48488;DHT22;34289;48.572;13.378;2023-02-02T08:17:30;1.50;99.90
48488;DHT22;34289;48.572;13.378;2023-02-02T08:19:55;1.50;99.90
48488;DHT22;34289;48.572;13.378;2023-02-02T08:22:21;1.50;99.90
48488;DHT22;34289;48.572;13.378;2023-02-02T08:24:46;1.60;99.90
48488;DHT22;34289;48.572;13.378;2023-02-02T08:27:14;1.80;99.90
48488;DHT22;34289;48.572;13.378;2023-02-02T08:29:40;1.60;99.90
48488;DHT22;34289;48.572;13.378;2023-02-02T08:32:05;1.70;99.90
48488;DHT22;34289;48.572;13.378;2023-02-02T08:34:31;1.60;99.90
48488;DHT22;34289;48.572;13.378;2023-02-02T08:37:01;1.60;99.90
48488;DHT22;34289;48.572;13.378;2023-02-02T08:39:27;1.60;99.90
48488;DHT22;34289;48.572;13.378;2023-02-02T08:41:56;1.50;99.90
48488;DHT22;34289;48.572;13.378;2023-02-02T08:44:22;1.60;99.90
48488;DHT22;34289;48.572;13.378;2023-02-02T08:46:48;1.60;99.90
48488;DHT22;34289;48.572;13.378;2023-02-02T08:49:14;1.70;99.90
48488;DHT22;34289;48.572;13.378;2023-02-02T08:51:41;1.70;99.90
48488;DHT22;34289;48.572;13.378;2023-02-02T08:54:07;1.70;99.90
48488;DHT22;34289;48.572;13.378;2023-02-02T08:56:32;1.70;99.90
48488;DHT22;34289;48.572;13.378;2023-02-02T08:58:58;1.80;99.90
48488;DHT22;34289;48.572;13.378;2023-02-02T09:01:27;1.80;99.90
48488;DHT22;34289;48.572;13.378;2023-02-02T09:04:04;1.70;99.90
48488;DHT22;34289;48.572;13.378;2023-02-02T09:06:36;1.70;99.90
48488;DHT22;34289;48.572;13.378;2023-02-02T09:09:03;1.70;99.90
48488;DHT22;34289;48.572;13.378;2023-02-02T09:11:29;1.80;99.90
48488;DHT22;34289;48.572;13.378;2023-02-02T09:13:57;1.80;99.90
48488;DHT22;34289;48.572;13.378;2023-02-02T09:16:24;1.80;99.90
48488;DHT22;34289;48.572;13.378;2023-02-02T09:18:50;1.80;99.90
48488;DHT22;34289;48.572;13.378;2023-02-02T09:21:17;1.70;99.90
48488;DHT22;34289;48.572;13.378;2023-02-02T09:23:44;1.70;99.90
48488;DHT22;34289;48.572;13.378;2023-02-02T09:26:21;1.80;99.90
48488;DHT22;34289;48.572;13.378;2023-02-02T09:29:03;1.80;99.90
48488;DHT22;34289;48.572;13.378;2023-02-02T09:31:32;1.80;99.90
48488;DHT22;34289;48.572;13.378;2023-02-02T09:34:01;1.90;99.90
48488;DHT22;34289;48.572;13.378;2023-02-02T09:36:27;1.90;99.90
48488;DHT22;34289;48.572;13.378;2023-02-02T09:38:53;1.90;99.90
48488;DHT22;34289;48.572;13.378;2023-02-02T09:46:44;2.00;99.90
48488;DHT22;34289;48.572;13.378;2023-02-02T09:49:18;2.00;99.90
48488;DHT22;34289;48.572;13.378;2023-02-02T09:51:55;2.00;99.90
48488;DHT22;34289;48.572;13.378;2023-02-02T09:54:27;2.00;99.90
48488;DHT22;34289;48.572;13.378;2023-02-02T09:56:58;2.10;99.90
48488;DHT22;34289;48.572;13.378;2023-02-02T09:59:33;2.00;99.90
48488;DHT22;34289;48.572;13.378;2023-02-02T10:02:06;2.00;99.90
48488;DHT22;34289;48.572;13.378;2023-02-02T10:04:39;2.60;99.90
48488;DHT22;34289;48.572;13.378;2023-02-02T10:07:15;2.00;99.90
48488;DHT22;34289;48.572;13.378;2023-02-02T10:10:28;2.00;99.90
48488;DHT22;34289;48.572;13.378;2023-02-02T10:12:44;2.00;99.90
48488;DHT22;34289;48.572;13.378;2023-02-02T10:15:33;2.00;99.90
48488;DHT22;34289;48.572;13.378;2023-02-02T10:18:28;2.00;99.90
48488;DHT22;34289;48.572;13.378;2023-02-02T10:20:57;2.00;99.90
48488;DHT22;34289;48.572;13.378;2023-02-02T10:23:42;2.00;99.90
48488;DHT22;34289;48.572;13.378;2023-02-02T10:26:20;2.00;99.90
48488;DHT22;34289;48.572;13.378;2023-02-02T10:31:58;2.00;99.90
48488;DHT22;34289;48.572;13.378;2023-02-02T10:34:42;2.00;99.90
48488;DHT22;34289;48.572;13.378;2023-02-02T10:37:32;2.00;99.90
48488;DHT22;34289;48.572;13.378;2023-02-02T10:45:50;2.10;99.90
48488;DHT22;34289;48.572;13.378;2023-02-02T10:48:19;2.00;99.90
48488;DHT22;34289;48.572;13.378;2023-02-02T10:50:52;2.00;99.90
48488;DHT22;34289;48.572;13.378;2023-02-02T10:53:18;2.00;99.90
48488;DHT22;34289;48.572;13.378;2023-02-02T10:56:05;2.30;99.90
48488;DHT22;34289;48.572;13.378;2023-02-02T10:59:04;2.40;99.90
48488;DHT22;34289;48.572;13.378;2023-02-02T11:01:29;2.20;99.90
48488;DHT22;34289;48.572;13.378;2023-02-02T11:03:55;2.60;99.90
48488;DHT22;34289;48.572;13.378;2023-02-02T11:06:39;2.30;99.90
48488;DHT22;34289;48.572;13.378;2023-02-02T11:09:20;2.10;99.90
48488;DHT22;34289;48.572;13.378;2023-02-02T11:11:50;1.90;99.90
48488;DHT22;34289;48.572;13.378;2023-02-02T11:14:29;1.70;99.90
48488;DHT22;34289;48.572;13.378;2023-02-02T11:17:03;1.90;99.90
48488;DHT22;34289;48.572;13.378;2023-02-02T11:19:30;1.90;99.90
48488;DHT22;34289;48.572;13.378;2023-02-02T11:21:58;2.00;99.90
48488;DHT22;34289;48.572;13.378;2023-02-02T11:24:44;1.90;99.90
48488;DHT22;34289;48.572;13.378;2023-02-02T11:27:26;2.00;99.90
48488;DHT22;34289;48.572;13.378;2023-02-02T11:29:54;2.10;99.90
48488;DHT22;34289;48.572;13.378;2023-02-02T11:32:31;2.10;99.90
48488;DHT22;34289;48.572;13.378;2023-02-02T11:37:30;2.00;99.90
48488;DHT22;34289;48.572;13.378;2023-02-02T11:40:31;2.00;99.90
48488;DHT22;34289;48.572;13.378;2023-02-02T11:43:01;2.00;99.90
48488;DHT22;34289;48.572;13.378;2023-02-02T11:45:40;2.10;99.90
48488;DHT22;34289;48.572;13.378;2023-02-02T11:48:17;2.20;99.90
48488;DHT22;34289;48.572;13.378;2023-02-02T11:50:51;2.20;99.90
48488;DHT22;34289;48.572;13.378;2023-02-02T11:53:26;2.40;99.90
48488;DHT22;34289;48.572;13.378;2023-02-02T11:55:53;2.40;99.90
48488;DHT22;34289;48.572;13.378;2023-02-02T11:58:25;2.20;99.90
48488;DHT22;34289;48.572;13.378;2023-02-02T12:00:57;2.00;99.90
48488;DHT22;34289;48.572;13.378;2023-02-02T12:03:40;2.10;99.90
48488;DHT22;34289;48.572;13.378;2023-02-02T12:06:19;2.10;99.90
48488;DHT22;34289;48.572;13.378;2023-02-02T12:08:45;2.20;99.90
48488;DHT22;34289;48.572;13.378;2023-02-02T12:11:26;2.20;99.90
48488;DHT22;34289;48.572;13.378;2023-02-02T12:25:10;2.10;99.90
48488;DHT22;34289;48.572;13.378;2023-02-02T12:28:14;2.10;99.90
48488;DHT22;34289;48.572;13.378;2023-02-02T12:33:50;2.10;99.90
48488;DHT22;34289;48.572;13.378;2023-02-02T12:41:54;2.50;99.90
48488;DHT22;34289;48.572;13.378;2023-02-02T12:47:16;2.10;99.90
48488;DHT22;34289;48.572;13.378;2023-02-02T12:50:13;2.20;99.90
48488;DHT22;34289;48.572;13.378;2023-02-02T13:01:21;1.90;99.90
48488;DHT22;34289;48.572;13.378;2023-02-02T13:06:52;2.00;99.90
48488;DHT22;34289;48.572;13.378;2023-02-02T13:09:50;2.00;99.90
48488;DHT22;34289;48.572;13.378;2023-02-02T13:12:23;1.90;99.90
48488;DHT22;34289;48.572;13.378;2023-02-02T13:15:07;1.90;99.90
48488;DHT22;34289;48.572;13.378;2023-02-02T13:18:29;1.90;99.90
48488;DHT22;34289;48.572;13.378;2023-02-02T13:20:39;1.90;99.90
48488;DHT22;34289;48.572;13.378;2023-02-02T13:23:14;1.90;99.90
48488;DHT22;34289;48.572;13.378;2023-02-02T13:26:00;1.90;99.90
48488;DHT22;34289;48.572;13.378;2023-02-02T13:28:37;2.50;99.90
48488;DHT22;34289;48.572;13.378;2023-02-02T13:31:17;1.90;99.90
48488;DHT22;34289;48.572;13.378;2023-02-02T13:33:45;1.70;99.90
48488;DHT22;34289;48.572;13.378;2023-02-02T13:36:21;1.80;99.90
48488;DHT22;34289;48.572;13.378;2023-02-02T13:38:59;1.70;99.90
48488;DHT22;34289;48.572;13.378;2023-02-02T13:41:26;2.50;99.90
48488;DHT22;34289;48.572;13.378;2023-02-02T13:44:06;1.50;99.90
48488;DHT22;34289;48.572;13.378;2023-02-02T13:46:57;1.40;99.90
48488;DHT22;34289;48.572;13.378;2023-02-02T13:49:37;1.40;99.90
48488;DHT22;34289;48.572;13.378;2023-02-02T13:55:18;1.20;99.90
48488;DHT22;34289;48.572;13.378;2023-02-02T14:00:25;1.10;99.90
48488;DHT22;34289;48.572;13.378;2023-02-02T14:02:59;1.20;99.90
48488;DHT22;34289;48.572;13.378;2023-02-02T14:05:33;1.20;99.90
48488;DHT22;34289;48.572;13.378;2023-02-02T14:08:01;1.30;99.90
48488;DHT22;34289;48.572;13.378;2023-02-02T14:10:38;1.50;99.90
48488;DHT22;34289;48.572;13.378;2023-02-02T14:15:58;1.60;99.90
48488;DHT22;34289;48.572;13.378;2023-02-02T14:26:43;1.70;99.90
48488;DHT22;34289;48.572;13.378;2023-02-02T14:32:00;1.70;99.90
48488;DHT22;34289;48.572;13.378;2023-02-02T14:34:32;1.70;99.90
48488;DHT22;34289;48.572;13.378;2023-02-02T14:43:06;1.60;99.90
48488;DHT22;34289;48.572;13.378;2023-02-02T14:48:47;1.70;99.90
48488;DHT22;34289;48.572;13.378;2023-02-02T14:51:31;1.70;99.90
48488;DHT22;34289;48.572;13.378;2023-02-02T14:54:04;1.60;99.90
48488;DHT22;34289;48.572;13.378;2023-02-02T14:56:48;1.60;99.90
48488;DHT22;34289;48.572;13.378;2023-02-02T14:59:26;1.60;99.90
48488;DHT22;34289;48.572;13.378;2023-02-02T15:04:36;1.60;99.90
48488;DHT22;34289;48.572;13.378;2023-02-02T15:07:35;1.60;99.90
48488;DHT22;34289;48.572;13.378;2023-02-02T15:10:01;1.60;99.90
48488;DHT22;34289;48.572;13.378;2023-02-02T15:12:44;1.60;99.90
48488;DHT22;34289;48.572;13.378;2023-02-02T15:15:19;1.40;99.90
48488;DHT22;34289;48.572;13.378;2023-02-02T15:21:04;1.40;99.90
48488;DHT22;34289;48.572;13.378;2023-02-02T15:23:34;1.40;99.90
48488;DHT22;34289;48.572;13.378;2023-02-02T15:34:02;1.50;99.90
48488;DHT22;34289;48.572;13.378;2023-02-02T15:36:35;1.50;99.90
48488;DHT22;34289;48.572;13.378;2023-02-02T15:39:03;1.40;99.90
48488;DHT22;34289;48.572;13.378;2023-02-02T15:41:35;1.40;99.90
48488;DHT22;34289;48.572;13.378;2023-02-02T15:44:17;1.40;99.90
48488;DHT22;34289;48.572;13.378;2023-02-02T15:46:43;1.40;99.90
48488;DHT22;34289;48.572;13.378;2023-02-02T15:51:46;1.20;99.90
48488;DHT22;34289;48.572;13.378;2023-02-02T15:56:51;1.20;99.90
48488;DHT22;34289;48.572;13.378;2023-02-02T15:59:22;1.30;99.90
48488;DHT22;34289;48.572;13.378;2023-02-02T16:04:36;1.30;99.90
48488;DHT22;34289;48.572;13.378;2023-02-02T16:07:10;1.30;99.90
48488;DHT22;34289;48.572;13.378;2023-02-02T16:09:37;1.50;99.90
48488;DHT22;34289;48.572;13.378;2023-02-02T16:12:15;1.30;99.90
48488;DHT22;34289;48.572;13.378;2023-02-02T16:14:45;1.30;99.90
48488;DHT22;34289;48.572;13.378;2023-02-02T16:19:46;1.20;99.90
48488;DHT22;34289;48.572;13.378;2023-02-02T16:22:19;1.20;99.90
48488;DHT22;34289;48.572;13.378;2023-02-02T16:24:47;2.00;99.90
48488;DHT22;34289;48.572;13.378;2023-02-02T16:27:18;1.20;99.90
48488;DHT22;34289;48.572;13.378;2023-02-02T16:29:44;1.30;99.90
48488;DHT22;34289;48.572;13.378;2023-02-02T16:32:29;1.30;99.90
48488;DHT22;34289;48.572;13.378;2023-02-02T16:34:56;1.30;99.90
48488;DHT22;34289;48.572;13.378;2023-02-02T16:39:54;1.30;99.90
48488;DHT22;34289;48.572;13.378;2023-02-02T16:42:26;1.30;99.90
48488;DHT22;34289;48.572;13.378;2023-02-02T16:44:53;1.40;99.90
48488;DHT22;34289;48.572;13.378;2023-02-02T16:55:15;-0.40;99.90
48488;DHT22;34289;48.572;13.378;2023-02-02T16:57:43;1.00;99.90
48488;DHT22;34289;48.572;13.378;2023-02-02T17:00:22;1.20;99.90
48488;DHT22;34289;48.572;13.378;2023-02-02T17:02:51;1.40;99.90
48488;DHT22;34289;48.572;13.378;2023-02-02T17:05:30;1.50;99.90
48488;DHT22;34289;48.572;13.378;2023-02-02T17:08:03;1.40;99.90
48488;DHT22;34289;48.572;13.378;2023-02-02T17:10:30;1.40;99.90
48488;DHT22;34289;48.572;13.378;2023-02-02T17:12:59;1.30;99.90
48488;DHT22;34289;48.572;13.378;2023-02-02T17:15:32;1.30;99.90
48488;DHT22;34289;48.572;13.378;2023-02-02T17:17:58;1.30;99.90
48488;DHT22;34289;48.572;13.378;2023-02-02T17:20:24;1.30;99.90
48488;DHT22;34289;48.572;13.378;2023-02-02T17:23:03;1.30;99.90
48488;DHT22;34289;48.572;13.378;2023-02-02T17:25:31;1.30;99.90
48488;DHT22;34289;48.572;13.378;2023-02-02T17:27:58;1.30;99.90
48488;DHT22;34289;48.572;13.378;2023-02-02T17:30:25;1.20;99.90
48488;DHT22;34289;48.572;13.378;2023-02-02T17:32:51;1.20;99.90
48488;DHT22;34289;48.572;13.378;2023-02-02T17:35:23;1.20;99.90
48488;DHT22;34289;48.572;13.378;2023-02-02T17:37:49;1.30;99.90
48488;DHT22;34289;48.572;13.378;2023-02-02T17:40:20;1.30;99.90
48488;DHT22;34289;48.572;13.378;2023-02-02T17:42:50;1.20;99.90
48488;DHT22;34289;48.572;13.378;2023-02-02T17:45:17;1.20;99.90
48488;DHT22;34289;48.572;13.378;2023-02-02T17:47:44;1.20;99.90
48488;DHT22;34289;48.572;13.378;2023-02-02T17:50:10;1.30;99.90
48488;DHT22;34289;48.572;13.378;2023-02-02T17:52:39;1.20;99.90
48488;DHT22;34289;48.572;13.378;2023-02-02T17:55:11;1.20;99.90
48488;DHT22;34289;48.572;13.378;2023-02-02T17:57:38;1.20;99.90
48488;DHT22;34289;48.572;13.378;2023-02-02T18:00:04;3.40;99.90
48488;DHT22;34289;48.572;13.378;2023-02-02T18:02:30;1.40;99.90
48488;DHT22;34289;48.572;13.378;2023-02-02T18:04:56;1.40;99.90
48488;DHT22;34289;48.572;13.378;2023-02-02T18:07:21;1.40;99.90
48488;DHT22;34289;48.572;13.378;2023-02-02T18:09:47;1.40;99.90
48488;DHT22;34289;48.572;13.378;2023-02-02T18:12:12;1.20;99.90
48488;DHT22;34289;48.572;13.378;2023-02-02T18:14:38;1.20;99.90
48488;DHT22;34289;48.572;13.378;2023-02-02T18:17:04;1.30;99.90